TimeCST,TemperatureF,Dew PointF,Humidity,Sea Level PressureIn,VisibilityMPH,Wind Direction,Wind SpeedMPH,Gust SpeedMPH,PrecipitationIn,Events,Conditions,WindDirDegrees,DateUTC
12:15 AM,32.0,32.0,100,29.61,2.0,North,5.8,-,N/A,Snow,Light Snow,10,2013-02-14 06:15:00
12:35 AM,32.0,32.0,100,29.62,1.2,North,4.6,-,N/A,Snow,Light Snow,10,2013-02-14 06:35:00
12:55 AM,32.0,32.0,100,29.62,1.8,North,5.8,-,N/A,Snow,Light Snow,10,2013-02-14 06:55:00
1:15 AM,32.0,32.0,100,29.63,2.5,North,5.8,-,N/A,Snow,Light Snow,360,2013-02-14 07:15:00
1:35 AM,32.0,30.2,93,29.64,2.0,North,5.8,-,N/A,Snow,Light Snow,10,2013-02-14 07:35:00
1:55 AM,32.0,30.2,93,29.65,2.5,North,6.9,-,N/A,Snow,Light Snow,360,2013-02-14 07:55:00
2:15 AM,32.0,30.2,93,29.66,3.0,North,5.8,-,N/A,Snow,Light Snow,360,2013-02-14 08:15:00
2:35 AM,30.2,30.2,100,29.67,3.0,North,8.1,-,N/A,Snow,Light Snow,10,2013-02-14 08:35:00
2:55 AM,30.2,28.4,93,29.67,7.0,NNE,6.9,-,N/A,Snow,Light Snow,20,2013-02-14 08:55:00
3:15 AM,30.2,26.6,86,29.67,10.0,NNE,5.8,-,N/A,,Overcast,20,2013-02-14 09:15:00
3:35 AM,30.2,26.6,86,29.69,10.0,NNW,4.6,-,N/A,,Overcast,340,2013-02-14 09:35:00
3:55 AM,30.2,26.6,86,29.71,10.0,NNW,6.9,-,N/A,,Overcast,330,2013-02-14 09:55:00
4:15 AM,30.2,28.4,93,29.71,10.0,NNW,5.8,-,N/A,,Mostly Cloudy,340,2013-02-14 10:15:00
4:35 AM,28.4,26.6,93,29.72,10.0,NW,5.8,-,N/A,,Scattered Clouds,320,2013-02-14 10:35:00
4:55 AM,28.4,26.6,93,29.73,10.0,NW,3.5,-,N/A,,Clear,310,2013-02-14 10:55:00
5:15 AM,28.4,26.6,93,29.75,10.0,NW,5.8,-,N/A,,Scattered Clouds,320,2013-02-14 11:15:00
5:35 AM,26.6,26.6,100,29.75,10.0,NW,5.8,-,N/A,,Scattered Clouds,320,2013-02-14 11:35:00
5:55 AM,26.6,24.8,93,29.76,10.0,NW,5.8,-,N/A,,Overcast,320,2013-02-14 11:55:00
6:15 AM,28.4,26.6,93,29.77,10.0,NW,6.9,-,N/A,,Overcast,320,2013-02-14 12:15:00
6:35 AM,28.4,26.6,93,29.78,10.0,NW,4.6,-,N/A,,Overcast,320,2013-02-14 12:35:00
6:55 AM,26.6,24.8,93,29.79,10.0,Calm,Calm,-,N/A,,Overcast,0,2013-02-14 12:55:00
7:15 AM,26.6,24.8,93,29.79,10.0,Calm,Calm,-,N/A,,Overcast,0,2013-02-14 13:15:00
7:35 AM,26.6,23.0,86,29.80,10.0,NW,4.6,-,N/A,,Overcast,310,2013-02-14 13:35:00
7:55 AM,26.6,24.8,93,29.81,10.0,NW,3.5,-,N/A,,Overcast,310,2013-02-14 13:55:00
8:15 AM,26.6,24.8,93,29.81,10.0,Calm,Calm,-,N/A,,Overcast,0,2013-02-14 14:15:00
8:35 AM,26.6,23.0,86,29.82,10.0,Calm,Calm,-,N/A,,Overcast,0,2013-02-14 14:35:00
9:15 AM,28.4,24.8,86,29.83,10.0,NW,4.6,-,N/A,,Overcast,310,2013-02-14 15:15:00
9:35 AM,28.4,26.6,93,29.84,10.0,NW,4.6,-,N/A,,Overcast,310,2013-02-14 15:35:00
9:55 AM,30.2,26.6,86,29.84,10.0,NNW,3.5,-,N/A,,Overcast,330,2013-02-14 15:55:00
10:15 AM,30.2,26.6,86,29.84,10.0,NNW,8.1,-,N/A,,Overcast,340,2013-02-14 16:15:00
10:35 AM,30.2,26.6,86,29.85,10.0,NNW,10.4,-,N/A,,Mostly Cloudy,330,2013-02-14 16:35:00
10:55 AM,30.2,26.6,86,29.86,10.0,NNW,9.2,-,N/A,,Overcast,330,2013-02-14 16:55:00
11:15 AM,30.2,26.6,86,29.87,10.0,NW,8.1,-,N/A,,Overcast,310,2013-02-14 17:15:00
11:35 AM,30.2,26.6,86,29.87,10.0,NNW,10.4,-,N/A,,Overcast,330,2013-02-14 17:35:00
11:55 AM,30.2,24.8,80,29.88,10.0,NW,8.1,-,N/A,,Overcast,310,2013-02-14 17:55:00
12:15 PM,30.2,24.8,80,29.88,10.0,NNW,9.2,-,N/A,,Overcast,340,2013-02-14 18:15:00
12:35 PM,30.2,24.8,80,29.88,10.0,NW,9.2,-,N/A,,Overcast,310,2013-02-14 18:35:00
12:55 PM,30.2,24.8,80,29.89,10.0,NNW,12.7,-,N/A,,Overcast,330,2013-02-14 18:55:00
1:15 PM,30.2,23.0,75,29.90,10.0,NW,9.2,-,N/A,,Overcast,310,2013-02-14 19:15:00
1:35 PM,32.0,23.0,69,29.90,10.0,NW,9.2,-,N/A,,Overcast,320,2013-02-14 19:35:00
1:55 PM,32.0,21.2,64,29.90,10.0,NW,9.2,-,N/A,,Scattered Clouds,310,2013-02-14 19:55:00
2:15 PM,30.2,19.4,64,29.91,10.0,NW,12.7,18.4,N/A,,Scattered Clouds,310,2013-02-14 20:15:00
2:35 PM,32.0,19.4,60,29.92,10.0,WNW,16.1,21.9,N/A,,Mostly Cloudy,300,2013-02-14 20:35:00
2:55 PM,32.0,17.6,55,29.93,10.0,NW,13.8,20.7,N/A,,Overcast,320,2013-02-14 20:55:00
3:15 PM,28.4,12.2,51,29.95,10.0,NW,16.1,23.0,N/A,,Scattered Clouds,320,2013-02-14 21:15:00
3:35 PM,28.4,10.4,47,29.96,10.0,NW,13.8,-,N/A,,Clear,310,2013-02-14 21:35:00
3:55 PM,28.4,10.4,47,29.98,10.0,NNW,11.5,19.6,N/A,,Clear,330,2013-02-14 21:55:00
4:15 PM,26.6,8.6,47,29.99,10.0,NNW,16.1,20.7,N/A,,Clear,330,2013-02-14 22:15:00
4:35 PM,26.6,5.0,40,30.00,10.0,North,12.7,19.6,N/A,,Clear,350,2013-02-14 22:35:00
4:55 PM,24.8,3.2,40,30.02,10.0,NNW,11.5,18.4,N/A,,Clear,340,2013-02-14 22:55:00
5:15 PM,24.8,3.2,40,30.03,10.0,NNW,11.5,17.3,N/A,,Clear,340,2013-02-14 23:15:00
5:35 PM,23.0,3.2,43,30.04,10.0,NNW,8.1,-,N/A,,Clear,330,2013-02-14 23:35:00
5:55 PM,23.0,3.2,43,30.06,10.0,NNW,6.9,-,N/A,,Clear,340,2013-02-14 23:55:00
6:15 PM,23.0,1.4,39,30.07,10.0,NNW,8.1,-,N/A,,Clear,330,2013-02-15 00:15:00
6:35 PM,23.0,1.4,39,30.08,10.0,NNW,5.8,-,N/A,,Clear,340,2013-02-15 00:35:00
6:55 PM,21.2,1.4,42,30.09,10.0,NNW,6.9,-,N/A,,Clear,340,2013-02-15 00:55:00
7:15 PM,21.2,1.4,42,30.10,10.0,NNW,4.6,-,N/A,,Clear,340,2013-02-15 01:15:00
7:35 PM,21.2,1.4,42,30.11,10.0,NNW,5.8,-,N/A,,Clear,330,2013-02-15 01:35:00
7:55 PM,19.4,1.4,46,30.11,10.0,NNW,4.6,-,N/A,,Clear,330,2013-02-15 01:55:00
8:15 PM,19.4,1.4,46,30.12,10.0,NNW,4.6,-,N/A,,Clear,330,2013-02-15 02:15:00
8:35 PM,19.4,1.4,46,30.13,10.0,NNW,6.9,-,N/A,,Clear,330,2013-02-15 02:35:00
8:55 PM,19.4,1.4,46,30.13,10.0,NW,3.5,-,N/A,,Clear,320,2013-02-15 02:55:00
9:15 PM,17.6,1.4,49,30.14,10.0,WNW,4.6,-,N/A,,Clear,300,2013-02-15 03:15:00
9:35 PM,17.6,1.4,49,30.15,10.0,WNW,6.9,-,N/A,,Clear,300,2013-02-15 03:35:00
9:55 PM,17.6,3.2,53,30.16,10.0,NW,6.9,-,N/A,,Clear,310,2013-02-15 03:55:00
10:15 PM,17.6,3.2,53,30.16,10.0,NW,3.5,-,N/A,,Clear,320,2013-02-15 04:15:00
10:35 PM,15.8,3.2,58,30.16,10.0,NW,4.6,-,N/A,,Clear,310,2013-02-15 04:35:00
10:55 PM,15.8,3.2,58,30.16,10.0,NW,4.6,-,N/A,,Clear,320,2013-02-15 04:55:00
11:15 PM,15.8,3.2,58,30.16,10.0,NW,4.6,-,N/A,,Clear,320,2013-02-15 05:15:00
11:35 PM,15.8,3.2,58,30.17,10.0,NW,3.5,-,N/A,,Clear,320,2013-02-15 05:35:00
11:55 PM,14.0,3.2,62,30.17,10.0,Calm,Calm,-,N/A,,Clear,0,2013-02-15 05:55:00